^^
Grace C. Lehan Memorial Weather Station Historical Data
Daily Summary for July 20, 2021 Units:  English    Metric   Both
Daily Weekly Monthly Yearly
  High: Low: Average:
Temperature: 36.4 °F 26 °F 31.4 °F
Dew Point: 28 °F 17.1 °F 22.3 °F
Humidity: 89% 49.6% 70%
Wind Speed: 12.4mph 0mph 4mph
Wind Gust: 24mph - -
Wind- - NW
Pressure: 30.02 in 29.97 in -
Precipitation: 0.00 in    
 
 
Tabular Data for July 20, 2021
Time Temperature Dew Point Pressure Wind Wind Speed Wind Gust Humidity Rainfall Rate (Hourly) solar
00:04 30.9 °F 27.5 °F 29.99 in NW 1.3 mph 7 mph 87% 0.00 in 0 W/m2
00:09 30.9 °F 27.5 °F 29.99 in NNW 2.9 mph 8 mph 87% 0.00 in 0 W/m2
00:14 30.9 °F 27.5 °F 29.99 in NNW 2 mph 9 mph 87% 0.00 in 0 W/m2
00:19 30.9 °F 27.5 °F 29.99 in NNW 0.9 mph 9 mph 87% 0.00 in 0 W/m2
00:24 30.9 °F 27.5 °F 29.99 in North 0.3 mph 9 mph 87% 0.00 in 0 W/m2
00:29 31 °F 27.6 °F 29.99 in NNW 0.6 mph 9 mph 87% 0.00 in 0 W/m2
00:34 31 °F 27.8 °F 29.99 in North 0.5 mph 9 mph 87.9% 0.00 in 0 W/m2
00:39 31 °F 27.9 °F 29.99 in NNW 0.1 mph 4 mph 88% 0.00 in 0 W/m2
00:44 31 °F 27.9 °F 29.99 in Calm   4 mph 88% 0.00 in 0 W/m2
00:49 31 °F 27.9 °F 29.99 in Calm   4 mph 88% 0.00 in 0 W/m2
00:54 31 °F 27.9 °F 29.99 in NNW 0.2 mph 4 mph 88% 0.00 in 0 W/m2
00:59 31 °F 27.9 °F 29.99 in Calm   4 mph 88% 0.00 in 0 W/m2
01:04 31 °F 27.9 °F 29.99 in Calm   4 mph 88% 0.00 in 0 W/m2
01:09 31 °F 27.9 °F 29.99 in Calm     88% 0.00 in 0 W/m2
01:14 31 °F 27.9 °F 29.99 in Calm     88% 0.00 in 0 W/m2
01:19 31 °F 27.9 °F 29.99 in Calm     88% 0.00 in 0 W/m2
01:24 31 °F 27.9 °F 29.99 in Calm     88% 0.00 in 0 W/m2
01:29 30.9 °F 27.8 °F 29.99 in Calm     88% 0.00 in 0 W/m2
01:34 30.9 °F 27.8 °F 29.99 in Calm     88% 0.00 in 0 W/m2
01:39 30.9 °F 27.8 °F 29.98 in Calm     88% 0.00 in 0 W/m2
01:44 30.8 °F 27.7 °F 29.98 in Calm     88% 0.00 in 0 W/m2
01:49 30.8 °F 27.7 °F 29.98 in Calm     88.2% 0.00 in 0 W/m2
01:54 30.8 °F 28 °F 29.98 in Calm     89% 0.00 in 0 W/m2
01:59 30.8 °F 28 °F 29.98 in Calm     89% 0.00 in 0 W/m2
02:04 30.7 °F 27.9 °F 29.99 in Calm     89% 0.00 in 0 W/m2
02:09 30.7 °F 27.9 °F 29.99 in Calm     89% 0.00 in 0 W/m2
02:14 30.7 °F 27.9 °F 29.98 in NNW 0.1 mph 1 mph 89% 0.00 in 0 W/m2
02:19 30.7 °F 27.8 °F 29.98 in Calm   1 mph 88.9% 0.00 in 0 W/m2
02:24 30.6 °F 27.5 °F 29.98 in NNW 0.3 mph 3 mph 88% 0.00 in 0 W/m2
02:29 30.6 °F 27.3 °F 29.98 in North 0.3 mph 3 mph 87.3% 0.00 in 0 W/m2
02:34 30.6 °F 27 °F 29.99 in NNW 2.3 mph 6 mph 86.3% 0.00 in 0 W/m2
02:39 30.7 °F 26.6 °F 29.99 in NW 0.7 mph 6 mph 84.7% 0.00 in 0 W/m2
02:44 30.7 °F 26.3 °F 29.99 in NNW 0.8 mph 6 mph 83.3% 0.00 in 0 W/m2
02:49 30.8 °F 26 °F 29.98 in NW 1.6 mph 8 mph 82.1% 0.00 in 0 W/m2
02:54 30.9 °F 25.6 °F 29.98 in NNW 2.2 mph 8 mph 80.6% 0.00 in 0 W/m2
02:59 30.9 °F 25.2 °F 29.98 in NW 3 mph 8 mph 79% 0.00 in 0 W/m2
03:04 31 °F 24.9 °F 29.98 in North 0.9 mph 8 mph 77.8% 0.00 in 0 W/m2
03:09 31.1 °F 24.7 °F 29.97 in NNW 1.2 mph 6 mph 77% 0.00 in 0 W/m2
03:14 31.1 °F 24.7 °F 29.98 in NNW 0.5 mph 6 mph 77% 0.00 in 0 W/m2
03:19 31 °F 24.6 °F 29.98 in NNW 2.4 mph 8 mph 76.9% 0.00 in 0 W/m2
03:24 31.1 °F 24.4 °F 29.98 in NNW 0.7 mph 8 mph 76% 0.00 in 0 W/m2
03:29 31.1 °F 24.4 °F 29.98 in NNW 0.2 mph 8 mph 76% 0.00 in 0 W/m2
03:34 31 °F 24.4 °F 29.98 in NNW 0.1 mph 8 mph 76% 0.00 in 0 W/m2
03:39 31 °F 24.3 °F 29.98 in NNW 0.1 mph 3 mph 76% 0.00 in 0 W/m2
03:44 31 °F 24.1 °F 29.98 in North 0.7 mph 5 mph 75.2% 0.00 in 0 W/m2
03:49 31 °F 24.1 °F 29.99 in Calm   5 mph 75.5% 0.00 in 0 W/m2
03:54 30.9 °F 24 °F 29.99 in Calm   5 mph 75.4% 0.00 in 0 W/m2
03:59 30.8 °F 23.8 °F 29.99 in North 0.2 mph 5 mph 75% 0.00 in 0 W/m2
04:04 30.7 °F 24 °F 29.99 in North 0.3 mph 1 mph 76% 0.00 in 0 W/m2
04:09 30.6 °F 23.7 °F 29.99 in NW 1.6 mph 5 mph 75.1% 0.00 in 0 W/m2
04:14 30.5 °F 23.5 °F 29.99 in NW 0.1 mph 5 mph 75% 0.00 in 0 W/m2
04:19 30.5 °F 23.5 °F 29.99 in Calm   5 mph 75% 0.00 in 0 W/m2
04:24 30.4 °F 23.6 °F 29.99 in NW 1.8 mph 10 mph 75.7% 0.00 in 0 W/m2
04:29 30.2 °F 23.3 °F 29.99 in NW 0.7 mph 10 mph 75% 0.00 in 0 W/m2
04:34 30.2 °F 23.2 °F 29.99 in NNW 0.4 mph 10 mph 75% 0.00 in 0 W/m2
04:39 30.2 °F 23.2 °F 30.00 in NW 2.3 mph 7 mph 75% 0.00 in 0 W/m2
04:44 30.1 °F 23.2 °F 30.00 in Calm   7 mph 75% 0.00 in 0 W/m2
04:49 30.1 °F 23.2 °F 29.99 in NNW 0.3 mph 7 mph 75% 0.00 in 0 W/m2
04:54 30 °F 23.1 °F 30.00 in NW 0.9 mph 7 mph 75% 0.00 in 0 W/m2
04:59 29.9 °F 23 °F 29.99 in NW 4.6 mph 11 mph 75% 0.00 in 0 W/m2
05:04 29.9 °F 22.9 °F 30.00 in NW 1.8 mph 11 mph 75% 0.00 in 0 W/m2
05:09 29.8 °F 22.8 °F 30.00 in NW 3.6 mph 11 mph 75% 0.00 in 0 W/m2
05:14 29.6 °F 22.6 °F 30.00 in NW 3.7 mph 11 mph 75% 0.00 in 0 W/m2
05:19 29.3 °F 22.4 °F 30.00 in NW 1.3 mph 11 mph 75% 0.00 in 0 W/m2
05:24 29 °F 22.1 °F 30.00 in NW 2.9 mph 11 mph 75% 0.00 in 0 W/m2
05:29 28.8 °F 22.2 °F 30.00 in NW 0.7 mph 11 mph 76% 0.00 in 0 W/m2
05:34 28.6 °F 22 °F 30.00 in NW 0.7 mph 11 mph 76% 0.00 in 0 W/m2
05:39 28.4 °F 21.9 °F 30.01 in NW 0.1 mph 6 mph 76% 0.00 in 0 W/m2
05:44 28.3 °F 21.7 °F 30.01 in NW 1.6 mph 6 mph 76% 0.00 in 0 W/m2
05:49 28.1 °F 21.5 °F 30.01 in Calm   6 mph 76% 0.00 in 0 W/m2
05:54 27.9 °F 21.5 °F 30.01 in Calm   6 mph 76.3% 0.00 in 0 W/m2
05:59 27.8 °F 21.5 °F 30.01 in WNW 0.5 mph 6 mph 77% 0.00 in 0 W/m2
06:04 27.6 °F 21.4 °F 30.01 in Calm   6 mph 77% 0.00 in 0 W/m2
06:09 27.5 °F 21.2 °F 30.01 in Calm     77% 0.00 in 0 W/m2
06:14 27.3 °F 21.2 °F 30.01 in Calm     77.5% 0.00 in 0 W/m2
06:19 27.1 °F 21.2 °F 30.01 in Calm   2 mph 78% 0.00 in 0 W/m2
06:24 26.9 °F 21 °F 30.01 in Calm   2 mph 78% 0.00 in 0 W/m2
06:29 26.7 °F 20.8 °F 30.01 in NW 0.7 mph 5 mph 78% 0.00 in 0 W/m2
06:34 26.5 °F 21 °F 30.01 in WNW 0.7 mph 5 mph 79.4% 0.00 in 0 W/m2
06:39 26.3 °F 20.7 °F 30.01 in WNW 1.3 mph 6 mph 78.8% 0.00 in 0 W/m2
06:44 26.2 °F 20.6 °F 30.01 in WNW 1.8 mph 6 mph 79% 0.00 in 0 W/m2
06:49 26.1 °F 20.5 °F 30.01 in WNW 2.4 mph 9 mph 79% 0.00 in 0 W/m2
06:54 26 °F 20.4 °F 30.01 in WNW 2.1 mph 9 mph 79% 0.00 in 7 W/m2
06:59 26.1 °F 20.5 °F 30.01 in WNW 2.2 mph 9 mph 79% 0.00 in 7 W/m2
07:04 26.2 °F 20.7 °F 30.01 in WNW 1.6 mph 9 mph 79.3% 0.00 in 21 W/m2
07:09 26.5 °F 20.9 °F 30.01 in WNW 1.9 mph 9 mph 79% 0.00 in 30 W/m2
07:14 26.9 °F 21.1 °F 30.01 in WNW 2 mph 9 mph 78.4% 0.00 in 32 W/m2
07:19 27.4 °F 21.2 °F 30.01 in WNW 0.3 mph 9 mph 77.2% 0.00 in 18 W/m2
07:24 27.7 °F 21.1 °F 30.02 in WNW 1.8 mph 9 mph 76.1% 0.00 in 21 W/m2
07:29 27.8 °F 21.3 °F 30.02 in NW 2.1 mph 12 mph 76% 0.00 in 21 W/m2
07:34 27.9 °F 21.1 °F 30.02 in WNW 2.8 mph 12 mph 75.2% 0.00 in 19 W/m2
07:39 28 °F 21.1 °F 30.02 in NW 1 mph 6 mph 75% 0.00 in 16 W/m2
07:44 28 °F 20.9 °F 30.02 in WNW 2 mph 8 mph 74.3% 0.00 in 16 W/m2
07:49 28.1 °F 21 °F 30.02 in WNW 1.8 mph 8 mph 74.2% 0.00 in 18 W/m2
07:54 28.2 °F 21 °F 30.02 in WNW 2.5 mph 8 mph 74% 0.00 in 21 W/m2
07:59 28.3 °F 20.9 °F 30.02 in WNW 2.8 mph 11 mph 73.3% 0.00 in 30 W/m2
08:00 28.4 °F 20.9 °F 30.02 in NW 2 mph 11 mph 73% 0.00 in 33 W/m2
08:09 28.7 °F 20.9 °F 30.02 in WNW 2.8 mph 12 mph 72% 0.00 in 49 W/m2
08:14 28.9 °F 21 °F 30.02 in WNW 3.6 mph 12 mph 71.8% 0.00 in 39 W/m2
08:19 29.1 °F 21 °F 30.02 in WNW 3.2 mph 12 mph 71.4% 0.00 in 100 W/m2
08:24 29.4 °F 21.2 °F 30.02 in WNW 1.3 mph 12 mph 71% 0.00 in 109 W/m2
08:29 29.9 °F 21.6 °F 30.02 in WNW 1.5 mph 12 mph 70.9% 0.00 in 107 W/m2
08:34 30.3 °F 21.6 °F 30.02 in West 4.4 mph 12 mph 69.6% 0.00 in 114 W/m2
08:39 30.7 °F 21.6 °F 30.02 in WNW 6 mph 12 mph 68.6% 0.00 in 102 W/m2
08:44 31 °F 21.7 °F 30.02 in WNW 3.4 mph 12 mph 67.8% 0.00 in 118 W/m2
08:49 31.3 °F 21.7 °F 30.02 in WNW 3.8 mph 12 mph 67.1% 0.00 in 125 W/m2
08:54 31.5 °F 21.5 °F 30.02 in WNW 5.1 mph 13 mph 66.2% 0.00 in 128 W/m2
08:59 31.6 °F 21.6 °F 30.02 in WNW 4 mph 13 mph 66% 0.00 in 105 W/m2
09:04 31.7 °F 21.6 °F 30.02 in NW 3.6 mph 13 mph 65.6% 0.00 in 123 W/m2
09:09 31.9 °F 22.1 °F 30.02 in NW 5.1 mph 12 mph 66.9% 0.00 in 123 W/m2
09:14 32 °F 22.3 °F 30.02 in WNW 6.2 mph 14 mph 67% 0.00 in 130 W/m2
09:19 32.1 °F 22.3 °F 30.02 in WNW 5.2 mph 14 mph 66.7% 0.00 in 93 W/m2
09:24 32.3 °F 22.4 °F 30.01 in WNW 8.6 mph 19 mph 66.5% 0.00 in 109 W/m2
09:29 32.4 °F 21.8 °F 30.01 in WNW 9.2 mph 20 mph 64.7% 0.00 in 135 W/m2
09:34 32.3 °F 21.5 °F 30.02 in NW 6.5 mph 20 mph 63.9% 0.00 in 185 W/m2
09:39 32.5 °F 21.4 °F 30.02 in NW 9.8 mph 16 mph 63.1% 0.00 in 206 W/m2
09:44 32.7 °F 21.1 °F 30.01 in NW 6.2 mph 16 mph 62% 0.00 in 206 W/m2
09:49 33.1 °F 21.5 °F 30.01 in NW 7 mph 16 mph 62% 0.00 in 183 W/m2
09:54 33.5 °F 21.6 °F 30.01 in NW 4.4 mph 16 mph 61.1% 0.00 in 197 W/m2
09:59 33.9 °F 21.9 °F 30.01 in WNW 3.3 mph 16 mph 61% 0.00 in 262 W/m2
10:04 34.3 °F 21.9 °F 30.01 in NW 9.5 mph 18 mph 60.1% 0.00 in 322 W/m2
10:09 34.2 °F 21.1 °F 30.01 in NW 7.1 mph 18 mph 58.3% 0.00 in 338 W/m2
10:14 34 °F 20.7 °F 30.01 in NW 7.2 mph 18 mph 57.8% 0.00 in 323 W/m2
10:19 33.9 °F 20.8 °F 30.01 in NW 9.2 mph 18 mph 58.3% 0.00 in 359 W/m2
10:24 34 °F 20.6 °F 30.01 in NW 6.7 mph 18 mph 57.6% 0.00 in 371 W/m2
10:29 34.2 °F 21.1 °F 30.01 in WNW 5.1 mph 18 mph 58.3% 0.00 in 336 W/m2
10:34 34.5 °F 21 °F 30.01 in WNW 9.3 mph 18 mph 57.3% 0.00 in 464 W/m2
10:39 34.7 °F 20.8 °F 30.01 in WNW 9.9 mph 20 mph 56.4% 0.00 in 490 W/m2
10:44 35 °F 21.1 °F 30.01 in NW 6.2 mph 20 mph 56.3% 0.00 in 580 W/m2
10:49 35.4 °F 21.1 °F 30.01 in WNW 7.8 mph 20 mph 55.5% 0.00 in 580 W/m2
10:54 35.5 °F 20.8 °F 30.01 in WNW 7.2 mph 20 mph 54.6% 0.00 in 315 W/m2
10:59 35.4 °F 20.5 °F 30.01 in WNW 6.6 mph 20 mph 54.3% 0.00 in 121 W/m2
11:04 35 °F 20.4 °F 30.01 in NW 6.4 mph 20 mph 54.7% 0.00 in 199 W/m2
11:09 35.2 °F 20.4 °F 30.01 in NW 8.4 mph 15 mph 54.5% 0.00 in 548 W/m2
11:13 35.4 °F 20.4 °F 30.01 in NNW 8.6 mph 18 mph 53.8% 0.00 in 548 W/m2
11:30 35.2 °F 18.9 °F 30.01 in NW 8 mph 21 mph 51% 0.00 in 361 W/m2
12:04 36.4 °F 19.6 °F 30.01 in NW 12 mph 21 mph 50.1% 0.00 in 438 W/m2
12:09 36.2 °F 19.2 °F 30.01 in NW 12.3 mph 22 mph 49.6% 0.00 in 438 W/m2
12:14 35.8 °F 19.4 °F 30.01 in WNW 8.7 mph 22 mph 51% 0.00 in 438 W/m2
12:19 35.6 °F 19.9 °F 30.01 in NW 9.2 mph 22 mph 52.5% 0.00 in 118 W/m2
12:24 35.5 °F 19.9 °F 30.01 in NW 4.9 mph 22 mph 52.5% 0.00 in 234 W/m2
12:29 35.6 °F 19.8 °F 30.01 in NW 9 mph 22 mph 52.3% 0.00 in 234 W/m2
12:34 35.5 °F 19.3 °F 30.00 in NW 6.8 mph 22 mph 51.3% 0.00 in 171 W/m2
12:39 35.4 °F 19.9 °F 30.00 in WNW 5.5 mph 16 mph 52.7% 0.00 in 541 W/m2
12:44 35.7 °F 20.4 °F 30.00 in NW 9.5 mph 17 mph 53.3% 0.00 in 547 W/m2
12:49 35.7 °F 19.9 °F 30.00 in WNW 10.1 mph 21 mph 52.2% 0.00 in 278 W/m2
12:54 35.6 °F 19.7 °F 30.00 in NW 9.3 mph 21 mph 51.9% 0.00 in 237 W/m2
12:59 35.4 °F 19.4 °F 30.00 in NW 7.3 mph 21 mph 51.6% 0.00 in 237 W/m2
13:04 35.4 °F 19.3 °F 30.00 in NW 10.6 mph 23 mph 51.6% 0.00 in 206 W/m2
13:09 35.3 °F 19.3 °F 30.00 in NW 8.1 mph 23 mph 51.6% 0.00 in 160 W/m2
13:14 35.4 °F 19.5 °F 30.00 in WNW 8.3 mph 23 mph 52% 0.00 in 582 W/m2
13:19 35.6 °F 19.7 °F 30.00 in NW 6.3 mph 23 mph 51.9% 0.00 in 468 W/m2
13:24 35.7 °F 19.3 °F 30.00 in NW 6.2 mph 23 mph 51% 0.00 in 315 W/m2
13:29 35.5 °F 19.1 °F 29.99 in NW 8.1 mph 23 mph 50.8% 0.00 in 255 W/m2
13:34 35.3 °F 18.7 °F 29.99 in NW 8.4 mph 23 mph 50.5% 0.00 in 209 W/m2
13:39 34.9 °F 18.6 °F 30.00 in NW 6.9 mph 18 mph 51% 0.00 in 149 W/m2
13:44 34.7 °F 18.2 °F 30.00 in WNW 12 mph 23 mph 50.6% 0.00 in 151 W/m2
13:49 34.4 °F 17.8 °F 30.00 in NW 10.4 mph 23 mph 50.2% 0.00 in 134 W/m2
13:54 34.1 °F 17.6 °F 30.00 in NW 9.1 mph 23 mph 50.3% 0.00 in 130 W/m2
13:59 33.9 °F 17.9 °F 30.00 in NW 9.7 mph 23 mph 51.5% 0.00 in 132 W/m2
14:04 33.8 °F 17.8 °F 30.00 in NW 8.3 mph 23 mph 51.6% 0.00 in 105 W/m2
14:09 33.6 °F 17.5 °F 30.00 in WNW 10.1 mph 19 mph 51% 0.00 in 120 W/m2
14:14 33.5 °F 17.2 °F 30.00 in NW 9.2 mph 19 mph 50.8% 0.00 in 107 W/m2
14:19 33.4 °F 17.1 °F 29.99 in NW 11.4 mph 19 mph 50.7% 0.00 in 72 W/m2
14:24 33.3 °F 17.1 °F 29.99 in WNW 11.5 mph 19 mph 51.1% 0.00 in 148 W/m2
14:29 33.3 °F 17.1 °F 29.99 in WNW 12.1 mph 22 mph 51% 0.00 in 181 W/m2
14:34 33.3 °F 17.1 °F 29.99 in WNW 12.4 mph 22 mph 51% 0.00 in 125 W/m2
14:39 33.3 °F 17.1 °F 29.99 in NW 10.1 mph 22 mph 51% 0.00 in 123 W/m2
14:44 33.3 °F 17.5 °F 30.00 in NW 12.4 mph 24 mph 51.8% 0.00 in 179 W/m2
14:49 33.3 °F 17.6 °F 30.00 in NW 8.6 mph 24 mph 52.1% 0.00 in 156 W/m2
14:54 33.4 °F 17.7 °F 30.00 in WNW 10.8 mph 24 mph 52.1% 0.00 in 148 W/m2
14:59 33.5 °F 17.7 °F 30.01 in WNW 8.3 mph 24 mph 52% 0.00 in 262 W/m2
15:04 33.7 °F 18.2 °F 30.01 in NW 11 mph 24 mph 52.4% 0.00 in 262 W/m2
15:09 34.1 °F 18 °F 30.01 in WNW 10.4 mph 24 mph 51.3% 0.00 in 200 W/m2
15:13 34.1 °F 17.9 °F 30.01 in WNW 10.1 mph 24 mph 51% 0.00 in 172 W/m2
Hartford County Weather
Compliments of Weather Underground - 2 mb